createdAt,value
2023-05-02T00:02:17.449Z,96894.97
2023-05-02T00:04:44.459Z,96896.31
2023-05-02T00:07:11.898Z,96895.59
2023-05-02T00:09:38.828Z,96889.72
2023-05-02T00:12:05.854Z,96890.91
2023-05-02T00:14:32.923Z,96884.00
2023-05-02T00:16:59.870Z,96878.94
2023-05-02T00:19:26.745Z,96887.19
2023-05-02T00:21:53.584Z,96882.97
2023-05-02T00:24:20.386Z,96885.00
2023-05-02T00:26:47.420Z,96895.03
2023-05-02T00:29:14.209Z,96896.22
2023-05-02T00:31:41.946Z,96892.19
2023-05-02T00:34:08.757Z,96894.19
2023-05-02T00:36:35.598Z,96887.44
2023-05-02T00:39:02.419Z,96898.38
2023-05-02T00:41:29.274Z,96900.22
2023-05-02T00:43:56.077Z,96895.34
2023-05-02T00:46:23.143Z,96890.28
2023-05-02T00:48:50.407Z,96896.81
2023-05-02T00:51:18.216Z,96895.44
2023-05-02T00:53:45.692Z,96902.84
2023-05-02T00:56:12.546Z,96906.84
2023-05-02T00:58:41.257Z,96902.63
2023-05-02T01:01:48.319Z,96896.84
2023-05-02T01:04:35.839Z,96901.56
2023-05-02T01:07:12.560Z,96903.41
2023-05-02T01:09:57.941Z,96909.94
2023-05-02T01:12:31.908Z,96916.41
2023-05-02T01:15:02.334Z,96910.38
2023-05-02T01:17:32.956Z,96908.16
2023-05-02T01:20:12.248Z,96905.97
2023-05-02T01:22:43.713Z,96909.63
2023-05-02T01:25:33.541Z,96906.75
2023-05-02T01:28:18.930Z,96901.16
2023-05-02T01:30:47.498Z,96901.69
2023-05-02T01:33:17.169Z,96903.72
2023-05-02T01:35:46.426Z,96905.53
2023-05-02T01:38:16.736Z,96902.00
2023-05-02T01:40:46.251Z,96899.19
2023-05-02T01:43:15.679Z,96911.75
2023-05-02T01:45:45.652Z,96902.00
2023-05-02T01:48:13.293Z,96916.91
2023-05-02T01:50:44.437Z,96919.81
2023-05-02T01:53:13.859Z,96919.81
2023-05-02T01:55:43.933Z,96922.63
2023-05-02T01:58:15.185Z,96923.31
2023-05-02T02:00:45.256Z,96926.84
2023-05-02T02:03:14.146Z,96918.63
2023-05-02T02:05:42.501Z,96921.47
2023-05-02T02:08:09.671Z,96913.56
2023-05-02T02:10:45.822Z,96925.47
2023-05-02T02:13:44.896Z,96922.44
2023-05-02T02:16:14.670Z,96924.78
2023-05-02T02:18:46.014Z,96929.47
2023-05-02T02:21:18.926Z,96926.09
2023-05-02T02:23:48.560Z,96937.81
2023-05-02T02:26:18.092Z,96938.31
2023-05-02T02:28:45.145Z,96942.81
2023-05-02T02:31:12.128Z,96942.13
2023-05-02T02:33:39.017Z,96948.50
2023-05-02T02:36:18.214Z,96940.75
2023-05-02T02:38:56.562Z,96949.13
2023-05-02T02:41:43.617Z,96952.28
2023-05-02T02:44:30.967Z,96958.41
2023-05-02T02:47:09.576Z,96959.72
2023-05-02T02:49:51.453Z,96958.63
2023-05-02T02:52:33.855Z,96961.78
2023-05-02T02:55:13.124Z,96956.88
2023-05-02T02:57:57.979Z,96967.91
2023-05-02T03:00:27.371Z,96978.47
2023-05-02T03:02:56.536Z,96978.63
2023-05-02T03:05:23.966Z,96972.44
2023-05-02T03:07:51.208Z,96973.25
2023-05-02T03:10:18.615Z,96971.59
2023-05-02T03:12:45.490Z,96978.63
2023-05-02T03:15:51.327Z,96989.44
2023-05-02T03:18:23.099Z,96992.66
2023-05-02T03:20:49.917Z,96997.00
2023-05-02T03:23:16.798Z,96998.00
2023-05-02T03:25:43.588Z,96993.63
2023-05-02T03:28:14.025Z,97004.50
2023-05-02T03:30:43.901Z,97004.66
2023-05-02T03:33:11.081Z,97001.28
2023-05-02T03:35:42.621Z,97013.00
2023-05-02T03:38:11.073Z,97012.28
2023-05-02T03:40:38.058Z,97018.66
2023-05-02T03:43:09.315Z,97020.50
2023-05-02T03:45:36.239Z,97028.38
2023-05-02T03:48:03.185Z,97031.91
2023-05-02T03:50:30.928Z,97029.09
2023-05-02T03:52:57.932Z,97038.66
2023-05-02T03:55:40.753Z,97035.00
2023-05-02T03:58:10.655Z,97037.22
2023-05-02T04:00:38.736Z,97032.41
2023-05-02T04:03:08.606Z,97041.84
2023-05-02T04:05:39.285Z,97043.22
2023-05-02T04:08:06.414Z,97038.25
2023-05-02T04:10:33.326Z,97041.31
2023-05-02T04:13:04.020Z,97045.38
2023-05-02T04:15:32.918Z,97042.09
2023-05-02T04:18:00.749Z,97050.53
2023-05-02T04:20:29.218Z,97052.75
2023-05-02T04:22:56.081Z,97045.91
2023-05-02T04:25:23.071Z,97048.97
2023-05-02T04:27:52.286Z,97044.00
2023-05-02T04:30:22.174Z,97048.66
2023-05-02T04:33:04.330Z,97043.63
2023-05-02T04:35:35.078Z,97046.50
2023-05-02T04:38:03.290Z,97052.09
2023-05-02T04:40:30.866Z,97052.47
2023-05-02T04:43:03.442Z,97059.13
2023-05-02T04:45:48.293Z,97061.16
2023-05-02T04:48:22.817Z,97056.31
2023-05-02T04:50:50.035Z,97062.91
2023-05-02T04:53:16.910Z,97061.44
2023-05-02T04:55:43.841Z,97073.56
2023-05-02T04:58:10.991Z,97084.81
2023-05-02T05:00:38.867Z,97087.19
2023-05-02T05:03:06.427Z,97093.41
2023-05-02T05:05:33.914Z,97102.31
2023-05-02T05:08:01.676Z,97102.16
2023-05-02T05:10:32.201Z,97112.75
2023-05-02T05:12:59.031Z,97118.66
2023-05-02T05:15:27.240Z,97116.66
2023-05-02T05:17:58.606Z,97116.31
2023-05-02T05:20:25.498Z,97120.25
2023-05-02T05:22:55.943Z,97123.53
2023-05-02T05:25:23.064Z,97124.31
2023-05-02T05:27:52.471Z,97131.06
2023-05-02T05:30:19.753Z,97129.75
2023-05-02T05:32:47.512Z,97129.41
2023-05-02T05:35:14.442Z,97129.78
2023-05-02T05:37:41.479Z,97138.03
2023-05-02T05:40:11.670Z,97142.09
2023-05-02T05:42:40.986Z,97144.47
2023-05-02T05:45:16.344Z,97143.81
2023-05-02T05:47:43.712Z,97145.38
2023-05-02T05:50:11.020Z,97142.38
2023-05-02T05:52:39.492Z,97150.25
2023-05-02T05:55:07.133Z,97152.94
2023-05-02T05:57:33.993Z,97152.94
2023-05-02T06:00:01.582Z,97157.31
2023-05-02T06:02:30.168Z,97164.41
2023-05-02T06:04:57.638Z,97165.25
2023-05-02T06:07:25.834Z,97171.28
2023-05-02T06:09:52.630Z,97176.66
2023-05-02T06:12:21.312Z,97174.81
2023-05-02T06:14:48.084Z,97171.28
2023-05-02T06:17:15.428Z,97171.28
2023-05-02T06:19:42.271Z,97179.22
2023-05-02T06:22:12.264Z,97180.19
2023-05-02T06:24:39.004Z,97186.22
2023-05-02T06:27:05.769Z,97190.47
2023-05-02T06:29:32.613Z,97188.47
2023-05-02T06:31:59.448Z,97194.41
2023-05-02T06:34:26.358Z,97201.97
2023-05-02T06:36:56.701Z,97198.28
2023-05-02T06:39:23.584Z,97195.84
2023-05-02T06:41:50.499Z,97203.25
2023-05-02T06:44:18.327Z,97205.16
2023-05-02T06:46:45.177Z,97215.25
2023-05-02T06:49:12.069Z,97215.78
2023-05-02T06:51:39.594Z,97209.75
2023-05-02T06:54:06.585Z,97214.66
2023-05-02T06:56:33.403Z,97222.06
2023-05-02T06:59:00.309Z,97235.72
2023-05-02T07:01:27.698Z,97234.22
2023-05-02T07:03:54.630Z,97232.75
2023-05-02T07:06:21.945Z,97233.94
2023-05-02T07:08:48.854Z,97245.06
2023-05-02T07:11:16.036Z,97244.25
2023-05-02T07:13:43.237Z,97248.28
2023-05-02T07:16:10.095Z,97252.16
2023-05-02T07:18:37.349Z,97259.78
2023-05-02T07:21:04.298Z,97257.56
2023-05-02T07:23:31.219Z,97262.50
2023-05-02T07:25:58.004Z,97255.25
2023-05-02T07:28:24.845Z,97257.13
2023-05-02T07:30:52.195Z,97260.78
2023-05-02T07:33:19.210Z,97265.34
2023-05-02T07:35:46.115Z,97253.91
2023-05-02T07:38:12.981Z,97262.97
2023-05-02T07:40:39.809Z,97260.44
2023-05-02T07:43:07.538Z,97264.81
2023-05-02T07:45:36.228Z,97264.69
2023-05-02T07:48:03.897Z,97264.50
2023-05-02T07:50:31.009Z,97268.03
2023-05-02T07:52:57.865Z,97268.88
2023-05-02T07:55:26.532Z,97277.13
2023-05-02T07:57:54.030Z,97267.38
2023-05-02T08:00:21.164Z,97280.84
2023-05-02T08:02:48.122Z,97281.50
2023-05-02T08:05:15.099Z,97290.28
2023-05-02T08:07:42.543Z,97290.94
2023-05-02T08:10:10.417Z,97289.94
2023-05-02T08:12:41.440Z,97287.25
2023-05-02T08:15:11.897Z,97298.72
2023-05-02T08:17:38.791Z,97292.31
2023-05-02T08:20:06.484Z,97292.31
2023-05-02T08:22:33.245Z,97293.00
2023-05-02T08:25:00.147Z,97293.53
2023-05-02T08:27:28.228Z,97294.03
2023-05-02T08:29:55.021Z,97301.47
2023-05-02T08:32:22.443Z,97297.25
2023-05-02T08:34:50.823Z,97297.47
2023-05-02T08:37:18.466Z,97304.72
2023-05-02T08:39:45.818Z,97299.47
2023-05-02T08:42:12.840Z,97301.69
2023-05-02T08:44:39.783Z,97302.53
2023-05-02T08:47:10.706Z,97292.94
2023-05-02T08:49:38.697Z,97308.78
2023-05-02T08:52:06.761Z,97297.63
2023-05-02T08:54:34.105Z,97304.22
2023-05-02T08:57:03.373Z,97301.84
2023-05-02T08:59:30.558Z,97312.97
2023-05-02T09:02:23.226Z,97319.00
2023-05-02T09:04:55.878Z,97318.97
2023-05-02T09:07:23.130Z,97315.56
2023-05-02T09:09:50.207Z,97326.84
2023-05-02T09:12:17.044Z,97332.22
2023-05-02T09:14:44.951Z,97330.84
2023-05-02T09:17:11.917Z,97326.38
2023-05-02T09:19:38.712Z,97342.75
2023-05-02T09:22:05.525Z,97329.84
2023-05-02T09:24:33.493Z,97335.25
2023-05-02T09:27:04.120Z,97330.19
2023-05-02T09:29:37.651Z,97328.41
2023-05-02T09:32:06.106Z,97332.75
2023-05-02T09:34:34.433Z,97339.31
2023-05-02T09:37:02.745Z,97339.28
2023-05-02T09:39:29.663Z,97333.13
2023-05-02T09:41:57.908Z,97332.91
2023-05-02T09:44:27.214Z,97334.22
2023-05-02T09:46:57.271Z,97333.47
2023-05-02T09:49:38.977Z,97334.53
2023-05-02T09:52:17.368Z,97332.88
2023-05-02T09:54:46.333Z,97330.22
2023-05-02T09:57:13.282Z,97327.94
2023-05-02T09:59:41.014Z,97332.72
2023-05-02T10:02:11.007Z,97332.06
2023-05-02T10:04:39.574Z,97327.03
2023-05-02T10:07:10.292Z,97327.38
2023-05-02T10:09:43.162Z,97325.72
2023-05-02T10:12:09.937Z,97330.09
2023-05-02T10:14:43.719Z,97331.31
2023-05-02T10:17:30.947Z,97331.66
2023-05-02T10:20:03.665Z,97339.56
2023-05-02T10:22:31.526Z,97330.94
2023-05-02T10:24:59.822Z,97340.38
2023-05-02T10:27:27.148Z,97337.09
2023-05-02T10:29:54.858Z,97335.03
2023-05-02T10:32:23.345Z,97336.03
2023-05-02T10:34:51.779Z,97339.59
2023-05-02T10:37:19.414Z,97339.22
2023-05-02T10:39:46.235Z,97334.44
2023-05-02T10:42:14.402Z,97331.28
2023-05-02T10:44:41.848Z,97332.69
2023-05-02T10:47:27.641Z,97324.41
2023-05-02T10:50:00.963Z,97331.91
2023-05-02T10:52:37.865Z,97326.22
2023-05-02T10:55:22.205Z,97323.03
2023-05-02T10:58:21.332Z,97320.53
2023-05-02T11:00:48.335Z,97310.19
2023-05-02T11:03:15.243Z,97312.56
2023-05-02T11:06:06.934Z,97309.94
2023-05-02T11:08:33.898Z,97311.81
2023-05-02T11:11:43.016Z,97320.66
2023-05-02T11:14:11.760Z,97317.69
2023-05-02T11:16:57.476Z,97318.91
2023-05-02T11:19:25.577Z,97319.19
2023-05-02T11:21:53.836Z,97316.03
2023-05-02T11:24:44.429Z,97320.50
2023-05-02T11:27:29.845Z,97321.44
2023-05-02T11:30:09.991Z,97324.63
2023-05-02T11:32:46.754Z,97314.97
2023-05-02T11:35:26.844Z,97320.88
2023-05-02T11:37:58.643Z,97315.09
2023-05-02T11:40:27.038Z,97320.88
2023-05-02T11:42:54.559Z,97316.19
2023-05-02T11:45:21.811Z,97319.69
2023-05-02T11:47:51.410Z,97327.13
2023-05-02T11:50:18.574Z,97326.44
2023-05-02T11:52:46.100Z,97318.41
2023-05-02T11:55:15.767Z,97330.38
2023-05-02T11:57:43.087Z,97325.53
2023-05-02T12:00:13.359Z,97317.50
2023-05-02T12:02:50.262Z,97324.94
2023-05-02T12:05:32.409Z,97323.47
2023-05-02T12:08:01.100Z,97326.44
2023-05-02T12:10:38.244Z,97332.06
2023-05-02T12:13:06.592Z,97336.97
2023-05-02T12:15:33.960Z,97340.34
2023-05-02T12:18:01.594Z,97329.09
2023-05-02T12:20:28.504Z,97333.78
2023-05-02T12:22:55.539Z,97337.78
2023-05-02T12:25:22.497Z,97332.44
2023-05-02T12:28:03.079Z,97333.44
2023-05-02T12:30:31.523Z,97332.56
2023-05-02T12:33:02.595Z,97331.97
2023-05-02T12:35:31.118Z,97328.31
2023-05-02T12:38:11.790Z,97330.81
2023-05-02T12:40:39.918Z,97326.69
2023-05-02T12:43:10.493Z,97331.47
2023-05-02T12:45:37.581Z,97327.91
2023-05-02T12:48:26.278Z,97341.59
2023-05-02T12:50:55.238Z,97334.75
2023-05-02T12:53:43.087Z,97332.81
2023-05-02T12:56:11.470Z,97328.34
2023-05-02T12:58:43.351Z,97323.66
2023-05-02T13:01:10.681Z,97328.34
2023-05-02T13:03:37.995Z,97328.03
2023-05-02T13:06:05.304Z,97337.50
2023-05-02T13:08:34.264Z,97324.22
2023-05-02T13:11:02.834Z,97336.06
2023-05-02T13:13:30.591Z,97330.28
2023-05-02T13:15:57.401Z,97330.84
2023-05-02T13:18:25.054Z,97334.25
2023-05-02T13:20:51.915Z,97328.03
2023-05-02T13:23:18.719Z,97325.59
2023-05-02T13:25:45.592Z,97331.47
2023-05-02T13:28:12.392Z,97321.03
2023-05-02T13:30:39.237Z,97322.06
2023-05-02T13:33:06.145Z,97322.69
2023-05-02T13:35:35.168Z,97323.31
2023-05-02T13:38:02.865Z,97323.06
2023-05-02T13:40:29.664Z,97317.63
2023-05-02T13:42:56.425Z,97318.06
2023-05-02T13:45:23.363Z,97317.03
2023-05-02T13:47:50.207Z,97321.88
2023-05-02T13:50:17.179Z,97320.72
2023-05-02T13:52:44.144Z,97317.38
2023-05-02T13:55:10.915Z,97322.59
2023-05-02T13:57:37.730Z,97314.66
2023-05-02T14:00:05.547Z,97313.00
2023-05-02T14:02:32.555Z,97322.63
2023-05-02T14:04:59.404Z,97322.84
2023-05-02T14:07:26.340Z,97319.69
2023-05-02T14:09:53.141Z,97327.84
2023-05-02T14:12:20.088Z,97324.53
2023-05-02T14:14:46.903Z,97326.19
2023-05-02T14:17:13.944Z,97325.78
2023-05-02T14:19:41.663Z,97323.66
2023-05-02T14:22:08.519Z,97330.59
2023-05-02T14:24:35.386Z,97320.31
2023-05-02T14:27:02.436Z,97319.66
2023-05-02T14:29:29.303Z,97319.22
2023-05-02T14:31:56.187Z,97316.25
2023-05-02T14:34:26.734Z,97325.25
2023-05-02T14:36:53.609Z,97326.75
2023-05-02T14:39:21.053Z,97322.34
2023-05-02T14:41:48.134Z,97321.34
2023-05-02T14:44:15.058Z,97316.50
2023-05-02T14:46:42.106Z,97325.75
2023-05-02T14:49:09.225Z,97323.66
2023-05-02T14:51:39.440Z,97328.75
2023-05-02T14:54:07.091Z,97324.31
2023-05-02T14:56:34.070Z,97325.38
2023-05-02T14:59:00.903Z,97312.38
2023-05-02T15:01:27.873Z,97314.03
2023-05-02T15:04:04.918Z,97316.34
2023-05-02T15:06:34.929Z,97320.13
2023-05-02T15:09:02.166Z,97322.63
2023-05-02T15:11:28.978Z,97327.63
2023-05-02T15:13:58.472Z,97330.13
2023-05-02T15:16:26.854Z,97329.47
2023-05-02T15:18:54.037Z,97324.19
2023-05-02T15:21:21.366Z,97330.03
2023-05-02T15:23:48.212Z,97324.28
2023-05-02T15:26:15.169Z,97328.41
2023-05-02T15:28:42.121Z,97324.75
2023-05-02T15:31:09.001Z,97326.56
2023-05-02T15:33:35.985Z,97322.63
2023-05-02T15:36:02.880Z,97330.19
2023-05-02T15:38:34.678Z,97334.94
2023-05-02T15:41:01.482Z,97331.28
2023-05-02T15:43:28.382Z,97331.81
2023-05-02T15:45:58.456Z,97331.13
2023-05-02T15:48:30.800Z,97332.34
2023-05-02T15:50:57.772Z,97332.69
2023-05-02T15:53:24.663Z,97333.22
2023-05-02T15:55:52.838Z,97335.34
2023-05-02T15:58:20.229Z,97344.38
2023-05-02T16:00:47.544Z,97339.97
2023-05-02T16:03:15.770Z,97342.13
2023-05-02T16:05:42.732Z,97340.81
2023-05-02T16:08:09.889Z,97344.19
2023-05-02T16:10:39.081Z,97354.88
2023-05-02T16:13:05.954Z,97347.75
2023-05-02T16:15:32.817Z,97355.72
2023-05-02T16:17:59.718Z,97344.47
2023-05-02T16:20:27.772Z,97345.38
2023-05-02T16:22:55.157Z,97342.50
2023-05-02T16:25:22.155Z,97358.31
2023-05-02T16:27:49.149Z,97357.63
2023-05-02T16:30:16.339Z,97357.50
2023-05-02T16:32:43.231Z,97354.97
2023-05-02T16:35:12.790Z,97357.88
2023-05-02T16:37:41.341Z,97350.41
2023-05-02T16:40:09.625Z,97349.41
2023-05-02T16:42:37.198Z,97356.09
2023-05-02T16:45:04.494Z,97355.31
2023-05-02T16:47:31.365Z,97358.00
2023-05-02T16:49:59.704Z,97365.38
2023-05-02T16:52:27.249Z,97356.63
2023-05-02T16:54:54.725Z,97361.22
2023-05-02T16:57:22.096Z,97364.94
2023-05-02T16:59:51.075Z,97357.00
2023-05-02T17:02:20.744Z,97352.69
2023-05-02T17:04:48.571Z,97361.75
2023-05-02T17:07:15.586Z,97361.22
2023-05-02T17:09:44.338Z,97364.75
2023-05-02T17:12:12.735Z,97362.19
2023-05-02T17:14:42.364Z,97357.91
2023-05-02T17:17:10.128Z,97364.16
2023-05-02T17:19:37.242Z,97362.97
2023-05-02T17:22:04.997Z,97360.59
2023-05-02T17:24:32.554Z,97368.88
2023-05-02T17:26:59.779Z,97367.72
2023-05-02T17:29:26.748Z,97363.63
2023-05-02T17:31:53.635Z,97366.13
2023-05-02T17:34:25.523Z,97370.16
2023-05-02T17:36:52.373Z,97376.16
2023-05-02T17:39:19.257Z,97363.69
2023-05-02T17:41:46.212Z,97375.50
2023-05-02T17:44:13.030Z,97376.03
2023-05-02T17:46:39.949Z,97382.53
2023-05-02T17:49:06.812Z,97381.72
2023-05-02T17:51:33.683Z,97388.00
2023-05-02T17:54:00.855Z,97382.59
2023-05-02T17:56:28.396Z,97397.47
2023-05-02T17:58:55.328Z,97394.06
2023-05-02T18:01:22.196Z,97401.25
2023-05-02T18:03:49.949Z,97405.09
2023-05-02T18:06:18.099Z,97408.53
2023-05-02T18:08:45.852Z,97411.47
2023-05-02T18:11:20.155Z,97415.03
2023-05-02T18:13:48.392Z,97408.16
2023-05-02T18:16:15.443Z,97415.09
2023-05-02T18:18:43.664Z,97423.72
2023-05-02T18:21:11.459Z,97427.28
2023-05-02T18:23:40.034Z,97428.53
2023-05-02T18:26:13.248Z,97429.59
2023-05-02T18:28:42.714Z,97431.56
2023-05-02T18:31:17.532Z,97432.81
2023-05-02T18:33:44.502Z,97432.91
2023-05-02T18:36:11.381Z,97434.72
2023-05-02T18:38:39.009Z,97444.34
2023-05-02T18:41:05.955Z,97447.88
2023-05-02T18:43:34.847Z,97447.69
2023-05-02T18:46:01.826Z,97447.44
2023-05-02T18:48:28.679Z,97450.94
2023-05-02T18:50:58.672Z,97457.13
2023-05-02T18:53:26.396Z,97456.09
2023-05-02T18:55:54.157Z,97451.88
2023-05-02T18:58:22.428Z,97452.44
2023-05-02T19:00:49.282Z,97458.28
2023-05-02T19:03:16.330Z,97457.63
2023-05-02T19:05:43.805Z,97468.69
2023-05-02T19:08:11.145Z,97467.69
2023-05-02T19:10:37.969Z,97470.63
2023-05-02T19:13:04.835Z,97468.59
2023-05-02T19:15:34.059Z,97471.13
2023-05-02T19:18:00.994Z,97480.63
2023-05-02T19:20:29.876Z,97476.91
2023-05-02T19:23:14.612Z,97477.94
2023-05-02T19:25:44.881Z,97482.34
2023-05-02T19:28:16.622Z,97484.91
2023-05-02T19:30:45.252Z,97484.94
2023-05-02T19:33:12.489Z,97491.00
2023-05-02T19:35:39.440Z,97492.53
2023-05-02T19:38:06.348Z,97504.84
2023-05-02T19:40:33.275Z,97507.41
2023-05-02T19:43:00.063Z,97510.09
2023-05-02T19:45:27.653Z,97508.03
2023-05-02T19:47:56.851Z,97514.13
2023-05-02T19:50:26.228Z,97518.69
2023-05-02T19:52:53.056Z,97525.44
2023-05-02T19:55:20.726Z,97522.84
2023-05-02T19:57:48.628Z,97532.44
2023-05-02T20:00:15.898Z,97537.66
2023-05-02T20:02:44.460Z,97536.44
2023-05-02T20:05:11.629Z,97538.81
2023-05-02T20:07:38.566Z,97540.97
2023-05-02T20:10:06.242Z,97546.88
2023-05-02T20:12:33.096Z,97543.66
2023-05-02T20:14:59.874Z,97553.06
2023-05-02T20:17:26.882Z,97555.25
2023-05-02T20:19:53.950Z,97561.00
2023-05-02T20:22:20.794Z,97558.63
2023-05-02T20:24:47.752Z,97566.19
2023-05-02T20:27:14.589Z,97562.78
2023-05-02T20:29:41.556Z,97561.28
2023-05-02T20:32:09.040Z,97569.50
2023-05-02T20:34:36.120Z,97562.59
2023-05-02T20:37:06.862Z,97565.59
2023-05-02T20:39:35.104Z,97571.84
2023-05-02T20:42:03.610Z,97570.34
2023-05-02T20:44:36.451Z,97576.22
2023-05-02T20:47:06.835Z,97578.19
2023-05-02T20:49:33.710Z,97568.75
2023-05-02T20:52:06.546Z,97572.22
2023-05-02T20:54:33.702Z,97575.94
2023-05-02T20:57:00.497Z,97579.13
2023-05-02T20:59:27.318Z,97577.56
2023-05-02T21:01:54.193Z,97579.72
2023-05-02T21:04:21.280Z,97571.09
2023-05-02T21:06:48.172Z,97571.56
2023-05-02T21:09:16.872Z,97569.50
2023-05-02T21:11:43.763Z,97570.28
2023-05-02T21:14:11.696Z,97571.06
2023-05-02T21:16:38.482Z,97574.41
2023-05-02T21:19:05.455Z,97574.34
2023-05-02T21:21:32.283Z,97574.25
2023-05-02T21:23:59.133Z,97580.41
2023-05-02T21:26:26.162Z,97578.50
2023-05-02T21:28:53.357Z,97580.97
2023-05-02T21:31:20.290Z,97584.97
2023-05-02T21:33:47.189Z,97581.75
2023-05-02T21:36:14.945Z,97581.03
2023-05-02T21:38:41.746Z,97580.66
2023-05-02T21:41:08.939Z,97586.63
2023-05-02T21:43:39.649Z,97578.50
2023-05-02T21:46:06.680Z,97580.75
2023-05-02T21:48:34.004Z,97581.50
2023-05-02T21:51:01.011Z,97580.41
2023-05-02T21:53:28.005Z,97569.56
2023-05-02T21:55:55.221Z,97571.16
2023-05-02T21:58:22.093Z,97577.13
2023-05-02T22:00:48.958Z,97576.72
2023-05-02T22:03:15.867Z,97578.00
2023-05-02T22:05:42.795Z,97579.19
2023-05-02T22:08:12.524Z,97575.22
2023-05-02T22:10:42.411Z,97584.56
2023-05-02T22:13:14.747Z,97578.66
2023-05-02T22:15:46.579Z,97576.94
2023-05-02T22:18:16.567Z,97575.25
2023-05-02T22:20:44.256Z,97585.06
2023-05-02T22:23:12.375Z,97582.22
2023-05-02T22:25:44.795Z,97584.50
2023-05-02T22:28:12.274Z,97579.97
2023-05-02T22:30:40.115Z,97578.13
2023-05-02T22:33:07.463Z,97569.09
2023-05-02T22:35:34.457Z,97577.00
2023-05-02T22:38:04.885Z,97573.31
2023-05-02T22:40:32.563Z,97577.56
2023-05-02T22:43:00.662Z,97586.31
2023-05-02T22:45:27.835Z,97586.88
2023-05-02T22:47:55.155Z,97589.41
2023-05-02T22:50:22.120Z,97584.72
2023-05-02T22:52:49.141Z,97590.94
2023-05-02T22:55:17.281Z,97585.44
2023-05-02T22:57:44.211Z,97595.88
2023-05-02T23:00:12.196Z,97586.69
2023-05-02T23:02:39.616Z,97586.53
2023-05-02T23:05:07.218Z,97592.91
2023-05-02T23:07:34.154Z,97584.84
2023-05-02T23:10:01.580Z,97588.53
2023-05-02T23:12:28.728Z,97585.00
2023-05-02T23:14:56.806Z,97585.00
2023-05-02T23:17:23.770Z,97582.31
2023-05-02T23:19:50.750Z,97582.16
2023-05-02T23:22:17.606Z,97584.69
2023-05-02T23:24:46.801Z,97589.22
2023-05-02T23:27:14.272Z,97588.13
2023-05-02T23:29:41.789Z,97594.59
2023-05-02T23:32:08.789Z,97592.06
2023-05-02T23:34:38.885Z,97588.66
2023-05-02T23:37:06.780Z,97589.09
2023-05-02T23:39:33.713Z,97592.09
2023-05-02T23:42:03.461Z,97590.56
2023-05-02T23:44:31.178Z,97594.25
2023-05-02T23:46:59.427Z,97596.22
2023-05-02T23:49:27.158Z,97597.38
2023-05-02T23:51:54.020Z,97599.50
2023-05-02T23:54:20.861Z,97604.31
2023-05-02T23:56:47.789Z,97599.38
2023-05-02T23:59:15.127Z,97598.09
